Time;durP1;ratioP1;P1;durP2;ratioP2;P2;SDS_P1;SDS_P2;PMS_P1;PMS_P2;Temp;Humidity;BMP_temperature;BMP_pressure;BME280_temperature;BME280_humidity;BME280_pressure;Samples;Min_cycle;Max_cycle;Signal;HPM_P1;HPM_P2
2023/03/07 00:02:10;;;;;;;15.85;5.53;;;6.00;99.90;;;;;;5013290;28;20739;-72
2023/03/07 00:04:35;;;;;;;18.73;6.13;;;6.00;99.90;;;;;;5013108;28;20034;-72
2023/03/07 00:07:01;;;;;;;17.17;6.13;;;6.00;99.90;;;;;;5026669;28;20021;-72
2023/03/07 00:09:27;;;;;;;19.27;5.88;;;6.00;99.90;;;;;;5014591;28;20029;-72
2023/03/07 00:11:53;;;;;;;15.75;5.97;;;6.00;99.90;;;;;;5016742;28;20026;-72
2023/03/07 00:14:19;;;;;;;18.58;5.93;;;6.00;99.90;;;;;;5017488;28;20037;-72
2023/03/07 00:16:45;;;;;;;16.70;5.40;;;6.00;99.90;;;;;;5017786;28;20033;-72
2023/03/07 00:19:10;;;;;;;12.75;5.63;;;6.00;99.90;;;;;;5018474;28;20089;-72
2023/03/07 00:21:36;;;;;;;14.00;6.20;;;6.00;99.90;;;;;;5032353;28;20425;-72
2023/03/07 00:24:03;;;;;;;14.00;5.78;;;6.00;99.90;;;;;;5036925;28;20026;-72
2023/03/07 00:26:29;;;;;;;15.23;5.32;;;6.00;99.90;;;;;;5035732;28;20481;-72
2023/03/07 00:28:55;;;;;;;11.90;5.30;;;6.00;99.90;;;;;;5017291;28;20125;-72
2023/03/07 00:31:22;;;;;;;11.93;5.80;;;6.00;99.90;;;;;;5016040;28;20076;-72
2023/03/07 00:33:47;;;;;;;16.58;5.88;;;6.00;99.90;;;;;;5012236;28;20034;-72
2023/03/07 00:36:16;;;;;;;12.68;5.45;;;6.00;99.90;;;;;;5016731;28;20515;-72
2023/03/07 00:38:42;;;;;;;15.27;5.40;;;6.00;99.90;;;;;;5016019;28;20028;-72
2023/03/07 00:41:14;;;;;;;18.25;5.75;;;6.00;99.90;;;;;;5015361;28;20133;-72
2023/03/07 00:43:41;;;;;;;14.63;6.07;;;6.00;99.90;;;;;;5029673;28;20543;-72
2023/03/07 00:46:07;;;;;;;14.27;6.15;;;6.00;99.90;;;;;;5014848;28;20489;-73
2023/03/07 00:48:36;;;;;;;12.90;5.82;;;6.00;99.90;;;;;;5015220;28;20410;-73
2023/03/07 00:51:02;;;;;;;17.90;6.35;;;6.00;99.90;;;;;;5014937;28;20481;-72
2023/03/07 00:53:28;;;;;;;19.40;6.40;;;6.00;99.90;;;;;;5025968;28;20464;-72
2023/03/07 00:56:18;;;;;;;20.23;6.05;;;6.00;99.90;;;;;;5015684;28;20071;-72
2023/03/07 00:58:45;;;;;;;15.25;6.05;;;6.00;99.90;;;;;;5028481;28;20496;-72
2023/03/07 01:01:13;;;;;;;13.43;5.85;;;6.00;99.90;;;;;;5015287;28;20026;-72
2023/03/07 01:03:40;;;;;;;12.88;6.20;;;6.00;99.90;;;;;;5014981;28;20034;-72
2023/03/07 01:06:08;;;;;;;19.45;6.10;;;6.00;99.90;;;;;;5030690;28;20419;-72
2023/03/07 01:08:35;;;;;;;19.20;6.18;;;6.00;99.90;;;;;;5027322;28;20040;-72
2023/03/07 01:11:03;;;;;;;16.60;6.18;;;6.00;99.90;;;;;;5034539;28;20055;-72
2023/03/07 01:13:29;;;;;;;18.05;6.63;;;6.00;99.90;;;;;;5014716;28;20022;-72
2023/03/07 01:15:55;;;;;;;17.35;6.78;;;6.00;99.90;;;;;;5014520;28;20034;-72
2023/03/07 01:18:21;;;;;;;20.25;5.80;;;6.00;99.90;;;;;;5014405;28;20026;-72
2023/03/07 01:20:47;;;;;;;14.52;6.00;;;6.00;99.90;;;;;;5027934;28;20476;-72
2023/03/07 01:23:12;;;;;;;14.77;5.53;;;6.00;99.90;;;;;;5016265;28;20064;-72
2023/03/07 01:25:40;;;;;;;14.80;6.05;;;5.90;99.90;;;;;;5034907;28;20045;-73
2023/03/07 01:28:06;;;;;;;21.42;5.40;;;6.00;99.90;;;;;;5020298;28;20096;-72
2023/03/07 01:30:32;;;;;;;14.27;5.15;;;6.00;99.90;;;;;;5027895;28;20053;-72
2023/03/07 01:32:59;;;;;;;13.38;3.83;;;6.00;99.90;;;;;;5026393;28;20540;-73
2023/03/07 01:35:26;;;;;;;16.67;3.60;;;5.90;99.90;;;;;;5014781;28;20477;-72
2023/03/07 01:37:53;;;;;;;12.88;3.47;;;5.90;99.90;;;;;;5014355;28;20033;-72
2023/03/07 01:40:20;;;;;;;13.52;2.95;;;5.90;99.90;;;;;;5031275;28;20015;-72
2023/03/07 01:42:47;;;;;;;12.23;2.38;;;5.90;99.90;;;;;;5033608;28;20057;-73
2023/03/07 01:45:12;;;;;;;11.40;2.60;;;5.90;99.90;;;;;;5032477;28;20044;-73
2023/03/07 01:47:39;;;;;;;10.02;1.88;;;5.90;99.90;;;;;;5014311;28;20053;-72
2023/03/07 01:50:11;;;;;;;15.73;2.58;;;5.90;99.90;;;;;;5028019;28;20071;-72
2023/03/07 01:52:48;;;;;;;17.98;2.20;;;5.80;99.90;;;;;;5031265;28;20087;-72
2023/03/07 01:55:20;;;;;;;15.80;2.45;;;5.80;99.90;;;;;;5019924;28;20053;-73
2023/03/07 01:57:48;;;;;;;9.50;1.83;;;5.80;99.90;;;;;;5020278;28;20049;-73
2023/03/07 02:00:25;;;;;;;12.55;1.85;;;5.80;99.90;;;;;;5020926;28;20022;-73
2023/03/07 02:03:09;;;;;;;12.50;2.10;;;5.80;99.90;;;;;;5009302;28;20572;-73
2023/03/07 02:05:50;;;;;;;19.25;2.30;;;5.80;99.90;;;;;;5013812;28;20029;-71
2023/03/07 02:08:17;;;;;;;11.15;2.40;;;5.70;99.90;;;;;;5014686;28;20037;-71
2023/03/07 02:10:43;;;;;;;8.15;1.90;;;5.70;99.90;;;;;;5014959;28;20029;-71
2023/03/07 02:13:09;;;;;;;20.38;2.58;;;5.70;99.90;;;;;;5026462;28;20040;-73
2023/03/07 02:15:36;;;;;;;12.95;2.50;;;5.70;99.90;;;;;;5013544;28;20522;-71
2023/03/07 02:18:03;;;;;;;16.25;2.50;;;5.70;99.90;;;;;;5027721;28;20014;-71
2023/03/07 02:21:03;;;;;;;15.80;2.47;;;5.70;99.90;;;;;;5020969;28;20452;-72
2023/03/07 02:23:57;;;;;;;15.93;2.83;;;5.70;99.90;;;;;;5013701;28;20034;-72
2023/03/07 02:26:34;;;;;;;22.77;3.00;;;5.70;99.90;;;;;;5014240;28;20357;-72
2023/03/07 02:29:01;;;;;;;13.93;2.60;;;5.70;99.90;;;;;;5020603;28;20519;-72
2023/03/07 02:31:27;;;;;;;15.18;2.70;;;5.70;99.90;;;;;;5021435;28;20673;-72
2023/03/07 02:33:53;;;;;;;13.77;2.80;;;5.70;99.90;;;;;;5017600;28;20033;-72
2023/03/07 02:36:23;;;;;;;18.55;2.90;;;5.70;99.90;;;;;;5018021;28;20028;-72
2023/03/07 02:38:51;;;;;;;11.65;3.08;;;5.70;99.90;;;;;;5033145;28;20021;-72
2023/03/07 02:41:22;;;;;;;13.48;3.17;;;5.70;99.90;;;;;;5023018;28;20034;-72
2023/03/07 02:43:48;;;;;;;16.42;3.53;;;5.70;99.90;;;;;;5030356;28;20029;-71
2023/03/07 02:46:13;;;;;;;13.68;3.90;;;5.70;99.90;;;;;;5033122;28;20052;-71
2023/03/07 02:48:39;;;;;;;19.02;3.95;;;5.70;99.90;;;;;;5032721;28;20029;-72
2023/03/07 02:51:05;;;;;;;12.75;4.28;;;5.70;99.90;;;;;;5015676;28;20025;-71
2023/03/07 02:53:31;;;;;;;13.27;4.07;;;5.70;99.90;;;;;;5031770;28;20476;-71
2023/03/07 02:55:56;;;;;;;18.85;4.53;;;5.70;99.90;;;;;;5013972;28;20022;-72
2023/03/07 02:58:22;;;;;;;17.40;4.55;;;5.70;99.90;;;;;;5022302;28;20518;-72
2023/03/07 03:00:48;;;;;;;13.05;4.75;;;5.70;99.90;;;;;;5017878;28;20075;-72
2023/03/07 03:03:14;;;;;;;14.73;4.18;;;5.70;99.90;;;;;;5012941;28;20371;-72
2023/03/07 03:05:40;;;;;;;15.40;4.80;;;5.70;99.90;;;;;;5017488;28;20021;-72
2023/03/07 03:08:06;;;;;;;11.25;4.30;;;5.70;99.90;;;;;;5032477;28;20021;-72
2023/03/07 03:10:31;;;;;;;14.45;4.43;;;5.70;99.90;;;;;;5029175;28;20030;-72
2023/03/07 03:12:57;;;;;;;13.35;4.70;;;5.70;99.90;;;;;;5021296;28;20032;-72
2023/03/07 03:15:23;;;;;;;18.15;5.07;;;5.70;99.90;;;;;;5000084;28;20597;-71
2023/03/07 03:17:51;;;;;;;13.73;4.88;;;5.70;99.90;;;;;;5022381;28;20030;-72
2023/03/07 03:20:18;;;;;;;14.70;5.03;;;5.70;99.90;;;;;;5021502;28;20024;-71
2023/03/07 03:22:43;;;;;;;12.60;4.95;;;5.70;99.90;;;;;;5027768;28;20537;-72
2023/03/07 03:25:11;;;;;;;15.77;4.90;;;5.70;99.90;;;;;;5028129;28;20025;-72
2023/03/07 03:27:38;;;;;;;14.32;5.43;;;5.70;99.90;;;;;;5015918;28;20098;-72
2023/03/07 03:30:05;;;;;;;10.82;5.15;;;5.70;99.90;;;;;;5027947;28;20022;-71
2023/03/07 03:32:32;;;;;;;14.35;5.03;;;5.60;99.90;;;;;;5012716;28;20030;-72
2023/03/07 03:34:58;;;;;;;19.20;5.80;;;5.70;99.90;;;;;;5028346;28;20033;-72
2023/03/07 03:37:23;;;;;;;16.52;5.50;;;5.60;99.90;;;;;;5025193;28;20509;-73
2023/03/07 03:39:52;;;;;;;14.07;5.07;;;5.60;99.90;;;;;;5012756;28;20030;-72
2023/03/07 03:42:18;;;;;;;14.05;5.63;;;5.60;99.90;;;;;;5020009;28;20434;-72
2023/03/07 03:44:43;;;;;;;12.30;5.63;;;5.60;99.90;;;;;;5020895;28;20101;-72
2023/03/07 03:47:09;;;;;;;20.08;5.70;;;5.60;99.90;;;;;;5016020;28;20106;-72
2023/03/07 03:49:35;;;;;;;11.77;5.70;;;5.60;99.90;;;;;;5016754;28;20052;-72
2023/03/07 03:52:00;;;;;;;18.98;5.85;;;5.60;99.90;;;;;;5016171;28;20040;-72
2023/03/07 03:54:26;;;;;;;15.80;6.18;;;5.60;99.90;;;;;;5018465;28;20029;-72
2023/03/07 03:56:53;;;;;;;10.02;4.93;;;5.60;99.90;;;;;;5036369;28;20023;-72
2023/03/07 03:59:21;;;;;;;11.13;4.35;;;5.50;99.90;;;;;;5029628;28;20559;-73
2023/03/07 04:01:46;;;;;;;13.10;4.25;;;5.40;99.90;;;;;;4999843;28;20049;-72
2023/03/07 04:04:13;;;;;;;12.90;4.10;;;5.40;99.90;;;;;;5016950;28;20049;-72
2023/03/07 04:06:39;;;;;;;6.72;3.58;;;5.30;99.90;;;;;;5028056;28;20029;-72
2023/03/07 04:09:05;;;;;;;9.85;3.00;;;5.30;99.90;;;;;;5020674;28;20088;-72
2023/03/07 04:11:32;;;;;;;12.15;3.13;;;5.20;99.90;;;;;;5027450;28;20060;-72
2023/03/07 04:13:58;;;;;;;7.70;3.17;;;5.20;99.90;;;;;;5016675;28;20033;-72
2023/03/07 04:16:24;;;;;;;9.52;3.03;;;5.20;99.90;;;;;;5023320;28;20477;-72
2023/03/07 04:18:51;;;;;;;11.05;3.03;;;5.10;99.90;;;;;;5035256;28;20030;-72
2023/03/07 04:21:17;;;;;;;7.82;2.50;;;5.10;99.90;;;;;;5021438;28;20527;-72
2023/03/07 04:23:43;;;;;;;9.63;3.00;;;5.10;99.90;;;;;;5036189;28;20087;-72
2023/03/07 04:26:09;;;;;;;9.52;2.70;;;5.10;99.90;;;;;;5023148;28;20520;-72
2023/03/07 04:28:44;;;;;;;10.20;2.47;;;5.10;99.90;;;;;;5036217;28;20385;-72
2023/03/07 04:31:12;;;;;;;6.78;2.03;;;5.10;99.90;;;;;;5018510;28;20475;-72
2023/03/07 04:33:38;;;;;;;9.30;1.88;;;5.10;99.90;;;;;;5023388;28;20457;-72
2023/03/07 04:36:04;;;;;;;9.85;2.05;;;5.10;99.90;;;;;;5037772;28;20033;-72
2023/03/07 04:38:30;;;;;;;9.25;2.25;;;5.10;99.90;;;;;;5034002;28;21126;-72
2023/03/07 04:40:56;;;;;;;11.45;1.98;;;5.10;99.90;;;;;;5035291;28;20060;-72
2023/03/07 04:43:21;;;;;;;10.35;1.83;;;5.10;99.90;;;;;;5034884;28;20048;-72
2023/03/07 04:45:48;;;;;;;16.23;1.88;;;5.10;99.90;;;;;;4998904;28;20438;-72
2023/03/07 04:48:13;;;;;;;7.93;1.77;;;5.10;99.90;;;;;;5017009;28;20110;-72
2023/03/07 04:50:39;;;;;;;12.85;2.15;;;5.10;99.90;;;;;;5036035;28;20115;-72
2023/03/07 04:53:05;;;;;;;8.70;1.33;;;5.10;99.90;;;;;;5032263;28;20025;-72
2023/03/07 04:55:30;;;;;;;9.52;1.52;;;5.10;99.90;;;;;;5032304;28;20032;-72
2023/03/07 04:57:56;;;;;;;7.93;1.08;;;5.00;99.90;;;;;;5025686;28;20030;-72
2023/03/07 05:00:23;;;;;;;4.85;1.20;;;5.00;99.90;;;;;;5036638;28;20049;-72
2023/03/07 05:02:49;;;;;;;11.63;1.50;;;4.90;99.90;;;;;;5029006;28;20040;-72
2023/03/07 05:05:15;;;;;;;8.65;1.15;;;4.90;99.90;;;;;;5017103;28;20049;-72
2023/03/07 05:07:42;;;;;;;11.48;1.60;;;4.80;99.90;;;;;;5030723;28;20034;-73
2023/03/07 05:10:09;;;;;;;8.02;1.30;;;4.80;99.90;;;;;;5016970;28;20072;-73
2023/03/07 05:12:34;;;;;;;9.85;1.48;;;4.80;99.90;;;;;;5034070;28;20517;-73
2023/03/07 05:15:00;;;;;;;9.70;1.23;;;4.80;99.90;;;;;;5035685;28;20029;-72
2023/03/07 05:17:28;;;;;;;8.27;1.17;;;4.80;99.90;;;;;;5036013;28;20089;-72
2023/03/07 05:19:53;;;;;;;10.43;1.38;;;4.70;99.90;;;;;;5028774;28;20029;-72
2023/03/07 05:22:19;;;;;;;8.02;1.58;;;4.70;99.90;;;;;;5019376;28;20025;-72
2023/03/07 05:24:46;;;;;;;5.65;1.00;;;4.70;99.90;;;;;;5026387;28;20029;-73
2023/03/07 05:27:12;;;;;;;8.13;1.08;;;4.60;99.90;;;;;;5020354;28;20582;-72
2023/03/07 05:29:38;;;;;;;10.80;1.17;;;4.60;99.90;;;;;;5016398;28;20022;-72
2023/03/07 05:32:04;;;;;;;8.48;1.23;;;4.50;99.90;;;;;;5004278;28;20022;-72
2023/03/07 05:34:30;;;;;;;3.42;1.20;;;4.50;99.90;;;;;;5028134;28;20423;-72
2023/03/07 05:36:57;;;;;;;7.28;0.93;;;4.40;99.90;;;;;;5017163;28;20033;-72
2023/03/07 05:39:23;;;;;;;5.85;1.27;;;4.40;99.90;;;;;;5025655;28;20021;-72
2023/03/07 05:41:49;;;;;;;4.03;1.10;;;4.30;99.90;;;;;;5032581;28;20511;-72
2023/03/07 05:44:15;;;;;;;9.15;1.00;;;4.30;99.90;;;;;;5024370;28;20014;-72
2023/03/07 05:46:41;;;;;;;5.03;1.10;;;4.20;99.90;;;;;;5035188;28;20091;-72
2023/03/07 05:49:06;;;;;;;5.25;1.23;;;4.10;99.90;;;;;;5031108;28;20045;-72
2023/03/07 05:51:32;;;;;;;5.35;1.25;;;4.10;99.90;;;;;;5031017;28;20025;-72
2023/03/07 05:53:57;;;;;;;3.72;0.82;;;4.00;99.90;;;;;;5016310;28;20481;-72
2023/03/07 05:56:23;;;;;;;3.05;0.80;;;4.00;99.90;;;;;;5024289;28;20040;-72
2023/03/07 05:58:49;;;;;;;3.70;0.90;;;3.90;99.90;;;;;;5017738;28;20481;-72
2023/03/07 06:01:15;;;;;;;2.33;0.88;;;3.90;99.90;;;;;;5023888;28;20025;-72
2023/03/07 06:03:41;;;;;;;2.92;1.00;;;3.80;99.90;;;;;;5020047;28;20022;-72
2023/03/07 06:06:07;;;;;;;4.35;0.90;;;3.80;99.90;;;;;;5027163;28;20021;-72
2023/03/07 06:08:37;;;;;;;4.05;1.00;;;3.80;99.90;;;;;;5026883;28;20528;-73
2023/03/07 06:11:02;;;;;;;6.75;1.10;;;3.80;99.90;;;;;;5027936;28;20022;-73
2023/03/07 06:13:29;;;;;;;2.63;1.00;;;3.70;99.90;;;;;;5025077;28;20245;-73
2023/03/07 06:15:56;;;;;;;7.13;1.55;;;3.70;99.90;;;;;;5032376;28;20554;-72
2023/03/07 06:18:23;;;;;;;4.78;1.52;;;3.70;99.90;;;;;;5026782;28;20044;-72
2023/03/07 06:20:58;;;;;;;3.95;1.38;;;3.70;99.90;;;;;;5027074;28;20022;-71
2023/03/07 06:23:25;;;;;;;4.43;1.00;;;3.60;99.90;;;;;;5029906;28;20408;-72
2023/03/07 06:25:51;;;;;;;4.18;1.00;;;3.70;99.90;;;;;;5019765;28;20504;-72
2023/03/07 06:28:17;;;;;;;11.32;1.30;;;3.60;99.90;;;;;;5020493;28;20148;-72
2023/03/07 06:30:42;;;;;;;6.70;1.20;;;3.60;99.90;;;;;;5031325;28;20033;-71
2023/03/07 06:33:08;;;;;;;1.77;0.95;;;3.60;99.90;;;;;;5030790;28;20025;-72
2023/03/07 06:35:37;;;;;;;3.72;1.00;;;3.60;99.90;;;;;;5025498;28;20065;-72
2023/03/07 06:38:02;;;;;;;6.25;1.20;;;3.60;99.90;;;;;;5024023;28;20026;-72
2023/03/07 06:40:28;;;;;;;5.35;1.23;;;3.50;99.90;;;;;;5014861;28;20094;-72
2023/03/07 06:42:54;;;;;;;8.77;1.60;;;3.60;99.90;;;;;;5012104;28;20026;-72
2023/03/07 06:45:19;;;;;;;1.58;0.80;;;3.50;99.90;;;;;;5025662;28;20459;-72
2023/03/07 06:47:45;;;;;;;4.85;1.00;;;3.60;99.90;;;;;;5052073;28;20093;-71
2023/03/07 06:50:10;;;;;;;4.32;1.30;;;3.60;99.90;;;;;;5041009;28;20028;-71
2023/03/07 06:52:36;;;;;;;7.03;1.30;;;3.50;99.90;;;;;;5053096;28;20024;-71
2023/03/07 06:55:02;;;;;;;6.32;1.30;;;3.60;99.90;;;;;;5051414;28;20481;-71
2023/03/07 06:57:28;;;;;;;6.90;1.55;;;3.60;99.90;;;;;;5038395;28;20033;-71
2023/03/07 06:59:53;;;;;;;4.55;1.95;;;3.60;99.90;;;;;;5040529;28;20392;-71
2023/03/07 07:02:20;;;;;;;4.90;1.30;;;3.60;99.90;;;;;;5050015;28;20071;-71
2023/03/07 07:04:45;;;;;;;5.22;1.13;;;3.60;99.90;;;;;;5049702;28;20036;-71
2023/03/07 07:07:11;;;;;;;3.58;1.65;;;3.60;99.90;;;;;;5051390;28;20100;-71
2023/03/07 07:09:37;;;;;;;4.45;1.20;;;3.60;99.90;;;;;;5051757;28;20032;-71
2023/03/07 07:12:04;;;;;;;7.63;1.33;;;3.60;99.90;;;;;;5051759;28;20079;-71
2023/03/07 07:14:31;;;;;;;5.05;1.00;;;3.60;99.90;;;;;;5033059;28;20121;-71
2023/03/07 07:16:57;;;;;;;3.55;1.13;;;3.60;99.90;;;;;;5035987;28;20263;-71
2023/03/07 07:19:22;;;;;;;5.53;0.93;;;3.60;99.90;;;;;;5045039;28;20021;-71
2023/03/07 07:21:48;;;;;;;2.65;0.77;;;3.60;99.90;;;;;;5051299;28;20032;-71
2023/03/07 07:24:14;;;;;;;7.45;1.33;;;3.60;99.90;;;;;;5052221;28;20035;-71
2023/03/07 07:26:39;;;;;;;8.10;1.48;;;3.60;99.90;;;;;;5048840;28;20021;-71
2023/03/07 07:29:05;;;;;;;4.50;1.20;;;3.60;99.90;;;;;;5038590;28;20022;-71
2023/03/07 07:31:30;;;;;;;5.75;1.65;;;3.60;99.90;;;;;;5037320;28;20032;-71
2023/03/07 07:33:56;;;;;;;6.47;1.52;;;3.60;99.90;;;;;;5032238;28;20543;-71
2023/03/07 07:36:22;;;;;;;7.90;1.40;;;3.70;99.90;;;;;;5046600;28;20086;-71
2023/03/07 07:38:48;;;;;;;4.25;1.17;;;3.70;99.90;;;;;;5046570;28;20025;-71
2023/03/07 07:41:14;;;;;;;4.93;1.10;;;3.70;99.90;;;;;;5035930;28;20460;-71
2023/03/07 07:43:40;;;;;;;2.55;0.82;;;3.60;99.90;;;;;;5046957;28;20135;-71
2023/03/07 07:46:06;;;;;;;4.90;1.20;;;3.60;99.90;;;;;;5039953;28;20121;-71
2023/03/07 07:48:32;;;;;;;5.10;1.13;;;3.60;99.90;;;;;;5028944;28;20187;-71
2023/03/07 07:51:04;;;;;;;4.22;1.35;;;3.60;99.90;;;;;;5017151;28;20018;-71
2023/03/07 07:53:30;;;;;;;3.75;1.17;;;3.60;99.90;;;;;;5023180;28;20026;-71
2023/03/07 07:55:56;;;;;;;6.55;1.27;;;3.60;99.90;;;;;;5010483;28;20423;-71
2023/03/07 07:58:22;;;;;;;5.18;1.50;;;3.60;99.90;;;;;;5024704;28;20369;-71
2023/03/07 08:00:48;;;;;;;6.00;1.25;;;3.60;99.90;;;;;;5029539;28;20025;-71
2023/03/07 08:03:13;;;;;;;4.18;1.15;;;3.60;99.90;;;;;;5022670;28;20028;-71
2023/03/07 08:05:44;;;;;;;6.07;1.00;;;3.60;99.90;;;;;;5027016;28;20037;-71
2023/03/07 08:08:09;;;;;;;8.25;1.52;;;3.60;99.90;;;;;;5020311;28;20040;-72
2023/03/07 08:10:35;;;;;;;4.90;1.10;;;3.60;99.90;;;;;;5028232;28;20033;-72
2023/03/07 08:13:00;;;;;;;7.03;1.35;;;3.60;99.90;;;;;;5028737;28;20024;-71
2023/03/07 08:15:26;;;;;;;3.17;1.00;;;3.60;99.90;;;;;;5009640;28;20440;-72
2023/03/07 08:17:52;;;;;;;5.10;1.35;;;3.60;99.90;;;;;;5021787;28;20022;-72
2023/03/07 08:20:21;;;;;;;6.53;1.40;;;3.70;99.90;;;;;;5022129;28;20417;-72
2023/03/07 08:22:48;;;;;;;4.45;1.38;;;3.70;99.90;;;;;;5021823;28;20369;-72
2023/03/07 08:25:20;;;;;;;8.00;1.17;;;3.70;99.90;;;;;;5022961;28;20037;-71
2023/03/07 08:27:47;;;;;;;5.63;1.33;;;3.80;99.90;;;;;;5019027;28;20049;-71
2023/03/07 08:30:13;;;;;;;5.97;1.25;;;3.80;99.90;;;;;;5017881;28;20022;-72
2023/03/07 08:32:39;;;;;;;5.63;1.30;;;3.90;99.90;;;;;;5026280;28;20006;-69
2023/03/07 08:35:05;;;;;;;4.72;1.45;;;3.90;99.90;;;;;;5029947;28;20034;-70
2023/03/07 08:37:31;;;;;;;4.38;1.20;;;3.90;99.90;;;;;;5017036;28;20032;-70
2023/03/07 08:39:56;;;;;;;5.35;1.30;;;4.00;99.90;;;;;;5025472;28;20400;-70
2023/03/07 08:42:22;;;;;;;5.35;1.70;;;4.00;99.90;;;;;;5034230;28;20083;-70
2023/03/07 08:44:47;;;;;;;5.15;1.25;;;4.00;99.90;;;;;;5033108;28;20044;-70
2023/03/07 08:47:13;;;;;;;4.20;1.10;;;4.00;99.90;;;;;;5034105;28;20041;-72
2023/03/07 08:49:39;;;;;;;8.30;1.20;;;4.00;99.90;;;;;;5031873;28;20068;-69
2023/03/07 08:52:05;;;;;;;7.88;1.80;;;4.00;99.90;;;;;;5033980;28;20060;-72
2023/03/07 08:54:31;;;;;;;3.90;0.93;;;4.10;99.90;;;;;;5023876;28;20682;-71
2023/03/07 08:56:57;;;;;;;7.45;1.10;;;4.10;99.90;;;;;;5029998;28;20447;-70
2023/03/07 08:59:23;;;;;;;10.85;1.58;;;4.20;99.90;;;;;;5033122;28;20038;-72
2023/03/07 09:01:49;;;;;;;5.18;1.55;;;4.20;99.90;;;;;;5033446;28;20021;-71
2023/03/07 09:04:14;;;;;;;6.63;1.20;;;4.20;99.90;;;;;;5033283;28;20047;-70
2023/03/07 09:06:40;;;;;;;4.13;1.30;;;4.30;99.90;;;;;;5032186;28;20030;-70
2023/03/07 09:09:05;;;;;;;7.25;1.77;;;4.30;99.90;;;;;;5032400;28;20500;-70
2023/03/07 09:11:31;;;;;;;9.43;1.23;;;4.30;99.90;;;;;;5033262;28;20083;-70
2023/03/07 09:13:57;;;;;;;5.35;1.17;;;4.30;99.90;;;;;;5032875;28;20029;-70
2023/03/07 09:16:22;;;;;;;5.53;1.10;;;4.30;99.90;;;;;;5033711;28;20412;-71
2023/03/07 09:18:48;;;;;;;9.48;1.38;;;4.30;99.90;;;;;;5021124;28;20037;-71
2023/03/07 09:21:14;;;;;;;4.40;1.15;;;4.40;99.90;;;;;;5027908;28;20032;-71
2023/03/07 09:23:42;;;;;;;7.22;1.00;;;4.40;99.90;;;;;;5029293;28;20109;-71
2023/03/07 09:26:08;;;;;;;4.88;0.77;;;4.40;99.90;;;;;;5020058;28;20033;-71
2023/03/07 09:28:33;;;;;;;4.97;0.80;;;4.40;99.90;;;;;;5019798;28;20388;-71
2023/03/07 09:31:04;;;;;;;4.20;0.70;;;4.40;99.90;;;;;;5024182;28;20274;-71
2023/03/07 09:33:30;;;;;;;3.38;1.10;;;4.30;99.90;;;;;;5024476;28;20100;-72
2023/03/07 09:35:56;;;;;;;7.88;1.35;;;4.40;99.90;;;;;;5033221;28;20113;-71
2023/03/07 09:38:21;;;;;;;4.85;1.08;;;4.40;99.90;;;;;;5027948;28;20067;-72
2023/03/07 09:40:47;;;;;;;2.22;0.88;;;4.50;99.90;;;;;;5020445;28;20022;-72
2023/03/07 09:43:21;;;;;;;2.90;0.82;;;4.50;99.90;;;;;;5025275;28;20030;-72
2023/03/07 09:45:58;;;;;;;2.92;0.63;;;4.60;99.90;;;;;;5033543;28;20112;-72
2023/03/07 09:48:48;;;;;;;2.75;0.80;;;4.60;99.90;;;;;;5058761;28;20032;-72
2023/03/07 09:51:20;;;;;;;4.53;0.70;;;4.60;99.90;;;;;;5044265;28;20238;-71
2023/03/07 09:53:48;;;;;;;8.63;1.00;;;4.60;99.90;;;;;;5034859;28;20017;-72
2023/03/07 09:56:25;;;;;;;4.95;1.15;;;4.70;99.90;;;;;;5049877;28;20094;-72
2023/03/07 09:59:30;;;;;;;4.10;0.70;;;4.70;99.90;;;;;;5058598;28;20049;-72
2023/03/07 10:02:32;;;;;;;6.97;0.90;;;4.80;99.90;;;;;;5003812;28;20082;-71
2023/03/07 10:05:28;;;;;;;4.53;0.82;;;4.80;99.90;;;;;;5019755;28;20452;-72
2023/03/07 10:07:54;;;;;;;4.20;0.88;;;4.80;99.90;;;;;;5025686;28;20041;-72
2023/03/07 10:10:24;;;;;;;4.20;0.90;;;4.70;99.90;;;;;;5033272;28;20448;-72
2023/03/07 10:13:04;;;;;;;5.60;0.90;;;4.70;99.90;;;;;;5046869;28;20025;-72
2023/03/07 10:15:56;;;;;;;7.57;1.13;;;4.70;99.90;;;;;;5015708;28;20042;-72
2023/03/07 10:18:41;;;;;;;6.20;1.05;;;4.60;99.90;;;;;;5037414;28;20029;-72
2023/03/07 10:21:38;;;;;;;8.85;1.13;;;4.60;99.90;;;;;;5044759;28;20025;-72
2023/03/07 10:24:46;;;;;;;5.25;0.90;;;4.60;99.90;;;;;;5038828;28;20553;-72
2023/03/07 10:27:13;;;;;;;5.57;0.98;;;4.60;99.90;;;;;;5044868;28;20082;-71
2023/03/07 10:29:46;;;;;;;5.60;0.90;;;4.60;99.90;;;;;;5051767;28;20116;-72
2023/03/07 10:32:19;;;;;;;3.72;0.70;;;4.60;99.90;;;;;;5044279;28;20025;-72
2023/03/07 10:34:47;;;;;;;6.50;1.05;;;4.50;99.90;;;;;;5046123;28;20052;-72
2023/03/07 10:37:24;;;;;;;3.03;0.82;;;4.50;99.90;;;;;;5041588;28;20475;-72
2023/03/07 10:39:56;;;;;;;4.53;0.88;;;4.50;99.90;;;;;;5045550;28;20048;-72
2023/03/07 10:42:23;;;;;;;6.30;0.90;;;4.40;99.90;;;;;;5052101;28;20016;-72
2023/03/07 10:44:52;;;;;;;7.47;1.13;;;4.40;99.90;;;;;;5038753;28;20068;-72
2023/03/07 10:47:21;;;;;;;4.40;1.08;;;4.50;99.90;;;;;;5048391;28;20041;-72
2023/03/07 10:49:49;;;;;;;6.60;1.00;;;4.50;99.90;;;;;;5040059;28;20377;-72
2023/03/07 10:52:26;;;;;;;6.03;1.25;;;4.60;99.90;;;;;;5035869;28;20017;-71
2023/03/07 10:54:53;;;;;;;6.82;1.00;;;4.60;99.90;;;;;;5040264;28;20033;-71
2023/03/07 10:57:26;;;;;;;3.08;1.00;;;4.70;99.90;;;;;;5037769;28;20060;-70
2023/03/07 10:59:51;;;;;;;3.45;1.05;;;4.70;99.90;;;;;;5042728;28;20025;-71
2023/03/07 11:02:29;;;;;;;8.95;1.23;;;4.70;99.90;;;;;;5034994;28;20107;-72
2023/03/07 11:04:55;;;;;;;4.32;1.30;;;4.70;99.90;;;;;;5040514;28;20041;-71
2023/03/07 11:07:33;;;;;;;2.75;1.00;;;4.80;99.90;;;;;;5047889;28;20044;-72
2023/03/07 11:10:00;;;;;;;4.53;1.00;;;4.80;99.90;;;;;;5041965;28;20053;-72
2023/03/07 11:12:28;;;;;;;4.13;0.80;;;4.70;99.90;;;;;;5034234;28;20029;-72
2023/03/07 11:15:09;;;;;;;5.72;1.35;;;4.70;99.90;;;;;;5046602;28;20061;-72
2023/03/07 11:17:48;;;;;;;3.17;0.90;;;4.70;99.90;;;;;;5039185;28;20708;-72
2023/03/07 11:20:47;;;;;;;1.75;0.80;;;4.70;99.90;;;;;;5047392;28;20025;-72
2023/03/07 11:23:15;;;;;;;4.88;1.20;;;4.70;99.90;;;;;;5045873;28;20112;-72
2023/03/07 11:25:41;;;;;;;4.53;1.15;;;4.70;99.90;;;;;;5036149;28;20423;-72
2023/03/07 11:28:34;;;;;;;5.22;1.05;;;4.70;99.90;;;;;;5032854;28;20044;-72
2023/03/07 11:31:08;;;;;;;2.53;1.10;;;4.70;99.90;;;;;;5050761;28;20024;-72
2023/03/07 11:33:44;;;;;;;3.90;1.08;;;4.70;99.90;;;;;;5044974;28;20041;-72
2023/03/07 11:36:15;;;;;;;4.75;1.20;;;4.70;99.90;;;;;;5052076;28;20589;-72
2023/03/07 11:38:59;;;;;;;7.18;1.13;;;4.80;99.90;;;;;;5033315;28;20024;-72
2023/03/07 11:41:29;;;;;;;7.30;1.35;;;4.80;99.90;;;;;;5032755;28;20029;-72
2023/03/07 11:44:19;;;;;;;5.05;1.23;;;4.80;99.90;;;;;;5049919;28;20021;-72
2023/03/07 11:47:06;;;;;;;2.30;0.98;;;4.80;99.90;;;;;;5040055;28;20041;-72
2023/03/07 11:49:50;;;;;;;1.73;0.85;;;4.80;99.90;;;;;;5020721;28;20085;-72
2023/03/07 11:52:47;;;;;;;3.60;0.93;;;4.80;99.90;;;;;;4998397;28;20354;-71
2023/03/07 11:55:27;;;;;;;3.58;0.80;;;4.70;99.90;;;;;;5017767;28;20041;-71
2023/03/07 11:58:20;;;;;;;4.00;0.80;;;4.50;99.90;;;;;;5023012;28;20022;-71
2023/03/07 12:00:58;;;;;;;2.50;0.75;;;4.40;99.90;;;;;;5030140;28;20159;-71
2023/03/07 12:03:48;;;;;;;4.60;1.00;;;4.30;99.90;;;;;;5031378;28;20109;-74
2023/03/07 12:06:35;;;;;;;2.88;0.77;;;4.30;99.90;;;;;;5020566;28;20029;-72
2023/03/07 12:09:20;;;;;;;5.93;1.25;;;4.30;99.90;;;;;;5032703;28;20484;-71
2023/03/07 12:11:48;;;;;;;;;;;4.30;99.90;;;;;;5028828;28;20116;-71
2023/03/07 12:14:31;;;;;;;4.80;0.98;;;4.20;99.90;;;;;;5034623;28;20025;-71
2023/03/07 12:17:47;;;;;;;3.38;0.80;;;4.20;99.90;;;;;;5030739;28;20021;-71
2023/03/07 12:20:12;;;;;;;4.10;1.13;;;4.10;99.90;;;;;;4934940;29;20076;-72
2023/03/07 12:22:57;;;;;;;4.40;0.98;;;4.10;99.90;;;;;;4935332;29;20055;-72
2023/03/07 12:25:27;;;;;;;7.22;0.98;;;4.00;99.90;;;;;;4934368;29;20550;-72
2023/03/07 12:28:04;;;;;;;3.53;1.00;;;4.00;99.90;;;;;;4935161;29;20032;-72
2023/03/07 12:30:42;;;;;;;4.28;0.73;;;4.00;99.90;;;;;;4925466;29;20463;-72
2023/03/07 12:33:26;;;;;;;2.25;0.70;;;4.00;99.90;;;;;;4936836;29;20127;-72
2023/03/07 12:35:56;;;;;;;4.72;1.00;;;4.00;99.90;;;;;;4933122;29;20056;-72
2023/03/07 12:38:38;;;;;;;3.05;1.23;;;4.00;99.90;;;;;;4933218;29;20036;-72
2023/03/07 12:41:43;;;;;;;2.42;0.80;;;4.00;99.90;;;;;;4942237;29;20080;-72
2023/03/07 12:44:30;;;;;;;2.28;0.70;;;4.00;99.90;;;;;;4923830;29;20027;-72
2023/03/07 12:47:22;;;;;;;3.20;0.90;;;4.00;99.90;;;;;;4948375;28;20051;-71
2023/03/07 12:50:12;;;;;;;2.28;0.70;;;4.10;99.90;;;;;;4954228;28;20043;-72
2023/03/07 12:52:58;;;;;;;3.28;0.90;;;4.10;99.90;;;;;;4962430;28;20101;-70
2023/03/07 12:55:30;;;;;;;5.63;1.00;;;4.10;99.90;;;;;;4998796;28;20072;-72
2023/03/07 12:58:28;;;;;;;2.30;0.70;;;4.10;99.90;;;;;;5052378;28;20021;-72
2023/03/07 13:01:00;;;;;;;4.63;1.05;;;4.10;99.90;;;;;;5049126;28;20102;-71
2023/03/07 13:03:49;;;;;;;5.30;0.80;;;4.10;99.90;;;;;;5048428;28;20033;-72
2023/03/07 13:06:18;;;;;;;5.05;1.02;;;4.20;99.90;;;;;;5041742;28;20021;-72
2023/03/07 13:08:47;;;;;;;4.05;1.02;;;4.20;99.90;;;;;;5050254;28;20104;-72